Time;durP1;ratioP1;P1;durP2;ratioP2;P2;SDS_P1;SDS_P2;PMS_P1;PMS_P2;Temp;Humidity;BMP_temperature;BMP_pressure;BME280_temperature;BME280_humidity;BME280_pressure;Samples;Min_cycle;Max_cycle;Signal;HPM_P1;HPM_P2
2022/06/02 00:02:18;;;;;;;24.85;15.60;;;7.70;99.90;;;;;;5033254;28;20503;-80
2022/06/02 00:04:51;;;;;;;25.60;14.98;;;7.70;99.90;;;;;;5000731;28;20476;-80
2022/06/02 00:07:39;;;;;;;26.40;15.65;;;7.60;99.90;;;;;;5033241;28;20103;-80
2022/06/02 00:10:29;;;;;;;31.50;16.25;;;7.60;99.90;;;;;;5074377;28;20493;-80
2022/06/02 00:13:08;;;;;;;25.13;16.00;;;7.60;99.90;;;;;;5075244;28;20055;-80
2022/06/02 00:15:33;;;;;;;29.30;15.43;;;7.50;99.90;;;;;;5074167;28;20482;-81
2022/06/02 00:18:32;;;;;;;27.08;15.43;;;7.50;99.90;;;;;;5073649;28;20049;-83
2022/06/02 00:21:35;;;;;;;27.45;16.00;;;7.50;99.90;;;;;;5075387;28;20043;-80
2022/06/02 00:24:19;;;;;;;27.55;15.68;;;7.50;99.90;;;;;;5074826;28;20051;-80
2022/06/02 00:27:11;;;;;;;31.13;15.65;;;7.40;99.90;;;;;;5074018;28;20498;-80
2022/06/02 00:29:52;;;;;;;27.73;15.32;;;7.40;99.90;;;;;;5073788;28;20135;-80
2022/06/02 00:32:32;;;;;;;25.00;15.43;;;7.30;99.90;;;;;;5057358;28;20045;-80
2022/06/02 00:35:07;;;;;;;28.00;14.63;;;7.30;99.90;;;;;;5073831;28;20094;-80
2022/06/02 00:37:40;;;;;;;26.75;14.65;;;7.30;99.90;;;;;;5073935;28;20482;-80
2022/06/02 00:40:09;;;;;;;25.25;14.30;;;7.20;99.90;;;;;;5073468;28;20056;-80
2022/06/02 00:43:20;;;;;;;29.67;15.02;;;7.20;99.90;;;;;;5073657;28;20182;-80
2022/06/02 00:45:48;;;;;;;23.30;14.33;;;7.20;99.90;;;;;;5015785;28;20063;-80
2022/06/02 00:48:41;;;;;;;28.90;14.55;;;7.10;99.90;;;;;;5032477;28;20556;-80
2022/06/02 00:51:13;;;;;;;28.35;14.93;;;7.10;99.90;;;;;;5016138;28;20093;-80
2022/06/02 00:59:57;;;;;;;27.63;14.93;;;7.10;99.90;;;;;;5032202;28;20065;-80
2022/06/02 01:02:25;;;;;;;27.10;14.27;;;7.00;99.90;;;;;;5015629;28;20060;-81
2022/06/02 01:04:53;;;;;;;25.05;14.07;;;7.00;99.90;;;;;;5032241;28;20050;-80
2022/06/02 01:07:29;;;;;;;19.27;12.30;;;7.00;99.90;;;;;;5015742;28;20137;-81
2022/06/02 01:10:09;;;;;;;27.20;12.73;;;6.90;99.90;;;;;;5016045;28;20481;-81
2022/06/02 01:13:19;;;;;;;31.60;13.27;;;6.90;99.90;;;;;;5031929;28;20557;-81
2022/06/02 01:15:54;;;;;;;22.30;11.27;;;6.90;99.90;;;;;;4919067;29;20166;-81
2022/06/02 01:18:32;;;;;;;18.48;11.48;;;7.10;99.90;;;;;;4934631;29;20051;-80
2022/06/02 01:21:16;;;;;;;20.83;11.57;;;6.80;99.90;;;;;;4934603;29;20059;-82
2022/06/02 01:24:02;;;;;;;21.10;11.65;;;6.90;99.90;;;;;;4957032;28;20053;-81
2022/06/02 01:27:08;;;;;;;18.55;10.88;;;6.80;99.90;;;;;;4941243;28;20062;-80
2022/06/02 01:29:46;;;;;;;21.75;12.18;;;6.70;99.90;;;;;;4937364;29;20090;-81
2022/06/02 01:32:16;;;;;;;21.80;11.50;;;6.70;99.90;;;;;;4953585;29;20156;-80
2022/06/02 01:34:42;;;;;;;25.30;13.05;;;6.60;99.90;;;;;;4922095;29;20059;-80
2022/06/02 01:37:33;;;;;;;30.83;14.20;;;6.60;99.90;;;;;;4937670;29;20143;-80
2022/06/02 01:40:22;;;;;;;25.90;14.68;;;6.60;99.90;;;;;;4937152;29;20078;-80
2022/06/02 01:42:50;;;;;;;22.67;14.45;;;6.60;99.90;;;;;;4937658;29;20083;-80
2022/06/02 01:45:34;;;;;;;24.38;15.40;;;6.50;99.90;;;;;;4937432;28;20062;-80
2022/06/02 01:48:15;;;;;;;33.50;18.15;;;6.50;99.90;;;;;;4937236;29;20051;-80
2022/06/02 01:51:13;;;;;;;43.63;20.33;;;6.60;99.90;;;;;;4953224;29;20130;-80
2022/06/02 01:53:58;;;;;;;35.90;20.08;;;6.60;99.90;;;;;;5031014;28;20077;-82
2022/06/02 01:56:49;;;;;;;27.85;18.45;;;6.60;99.90;;;;;;5031174;28;20535;-80
2022/06/02 01:59:45;;;;;;;19.95;14.70;;;6.70;99.90;;;;;;5014969;28;20061;-80
2022/06/02 02:02:31;;;;;;;27.98;16.88;;;6.80;99.90;;;;;;5014338;28;20061;-80
2022/06/02 02:05:16;;;;;;;30.48;16.60;;;6.90;99.90;;;;;;5037416;28;20052;-80
2022/06/02 02:08:06;;;;;;;35.05;18.17;;;6.90;99.90;;;;;;5073151;28;20046;-81
2022/06/02 02:10:35;;;;;;;33.03;17.57;;;6.90;99.90;;;;;;5072160;28;20045;-80
2022/06/02 02:13:20;;;;;;;42.05;19.15;;;6.80;99.90;;;;;;5055135;28;20056;-87
2022/06/02 02:15:46;;;;;;;40.67;18.80;;;6.70;99.90;;;;;;5055005;28;20148;-80
2022/06/02 02:18:42;;;;;;;41.85;19.55;;;6.60;99.90;;;;;;5073038;28;20132;-80
2022/06/02 02:21:42;;;;;;;32.88;17.90;;;6.60;99.90;;;;;;5071880;28;20083;-81
2022/06/02 02:24:14;;;;;;;43.22;19.83;;;6.50;99.90;;;;;;5072509;28;20056;-80
2022/06/02 02:26:47;;;;;;;39.75;20.20;;;6.50;99.90;;;;;;5073026;28;20044;-80
2022/06/02 02:29:46;;;;;;;33.58;19.80;;;6.40;99.90;;;;;;5071917;28;20048;-80
2022/06/02 02:32:30;;;;;;;36.70;20.67;;;6.40;99.90;;;;;;5072537;28;20460;-80
2022/06/02 02:35:02;;;;;;;36.83;19.98;;;6.30;99.90;;;;;;5071750;28;20082;-80
2022/06/02 02:37:49;;;;;;;34.20;21.02;;;6.30;99.90;;;;;;5071737;28;20048;-80
2022/06/02 02:40:48;;;;;;;43.20;22.85;;;6.30;99.90;;;;;;5071441;28;20048;-80
2022/06/02 02:43:50;;;;;;;37.58;21.95;;;6.30;99.90;;;;;;5072590;28;20555;-81
2022/06/02 02:46:26;;;;;;;64.53;24.35;;;6.40;99.90;;;;;;5054055;28;20060;-80
2022/06/02 02:49:00;;;;;;;48.50;22.05;;;6.40;99.90;;;;;;5071574;28;20063;-81
2022/06/02 02:51:36;;;;;;;44.65;20.63;;;6.30;99.90;;;;;;5070885;28;20414;-81
2022/06/02 02:54:26;;;;;;;41.97;19.40;;;6.30;99.90;;;;;;5071685;28;20056;-81
2022/06/02 02:57:31;;;;;;;50.25;20.73;;;6.20;99.90;;;;;;5071580;28;20048;-81
2022/06/02 03:00:14;;;;;;;43.38;20.52;;;6.20;99.90;;;;;;5072611;28;20056;-81
2022/06/02 03:03:05;;;;;;;36.55;19.35;;;6.20;99.90;;;;;;5054832;28;20048;-81
2022/06/02 03:05:51;;;;;;;46.15;20.48;;;6.10;99.90;;;;;;5071503;28;20037;-81
2022/06/02 03:08:58;;;;;;;43.10;19.90;;;6.10;99.90;;;;;;5070901;28;20393;-81
2022/06/02 03:11:44;;;;;;;42.42;19.92;;;6.00;99.90;;;;;;5013583;28;20057;-81
2022/06/02 03:14:40;;;;;;;42.03;20.13;;;6.10;99.90;;;;;;5030212;28;20410;-81
2022/06/02 03:17:22;;;;;;;42.40;19.08;;;6.00;99.90;;;;;;5013911;28;20429;-81
2022/06/02 03:19:47;;;;;;;;;;;6.00;99.90;;;;;;5030777;28;20049;-81
2022/06/02 03:22:38;;;;;;;37.30;18.77;;;5.90;99.90;;;;;;5030166;28;19932;-81
2022/06/02 03:25:25;;;;;;;40.47;19.98;;;6.00;99.90;;;;;;5029940;28;20057;-81
2022/06/02 03:28:05;;;;;;;40.90;19.92;;;5.90;99.90;;;;;;4997294;28;20407;-80
2022/06/02 03:31:00;;;;;;;44.50;20.25;;;5.90;99.90;;;;;;5013587;28;20509;-81
2022/06/02 03:33:37;;;;;;;67.32;22.20;;;5.90;99.90;;;;;;4932618;29;20063;-81
2022/06/02 03:36:18;;;;;;;43.13;22.45;;;5.90;99.90;;;;;;4933050;29;20091;-81
2022/06/02 03:39:03;;;;;;;75.43;23.30;;;5.90;99.90;;;;;;4917339;29;20063;-80
2022/06/02 03:41:55;;;;;;;40.72;20.58;;;5.90;99.90;;;;;;4932806;29;20195;-85
2022/06/02 03:44:54;;;;;;;44.55;21.42;;;5.90;99.90;;;;;;4860932;29;20061;-81
2022/06/02 03:47:43;;;;;;;48.17;22.23;;;5.90;99.90;;;;;;4868034;29;20057;-81
2022/06/02 03:50:44;;;;;;;47.35;20.90;;;5.90;99.90;;;;;;4894726;29;20144;-81
2022/06/02 03:53:21;;;;;;;49.97;22.02;;;5.90;99.90;;;;;;4894937;29;20059;-81
2022/06/02 03:56:11;;;;;;;43.65;22.48;;;5.90;99.90;;;;;;4879225;29;20052;-81
2022/06/02 03:58:39;;;;;;;48.88;22.35;;;6.00;99.90;;;;;;4878970;29;20517;-81
2022/06/02 04:01:08;;;;;;;42.92;22.77;;;6.00;99.90;;;;;;4879507;29;20068;-81
2022/06/02 04:04:11;;;;;;;75.63;24.80;;;6.00;99.90;;;;;;4882127;29;20091;-81
2022/06/02 04:06:52;;;;;;;51.95;23.33;;;6.10;99.90;;;;;;4842258;29;20140;-82
2022/06/02 04:09:30;;;;;;;77.70;25.45;;;6.10;99.90;;;;;;4827369;29;20061;-81
2022/06/02 04:15:11;;;;;;;88.13;27.90;;;6.20;99.90;;;;;;4882504;29;20049;-81
2022/06/02 04:18:04;;;;;;;50.72;24.70;;;6.30;99.90;;;;;;4897936;29;20057;-80
2022/06/02 04:20:59;;;;;;;51.85;23.88;;;6.30;99.90;;;;;;4915209;28;20059;-80
2022/06/02 04:24:22;;;;;;;63.67;26.83;;;6.40;99.90;;;;;;4958326;28;20472;-80
2022/06/02 04:26:54;;;;;;;57.78;26.52;;;6.60;99.90;;;;;;4901035;29;20060;-81
2022/06/02 04:29:55;;;;;;;71.28;29.02;;;6.80;99.90;;;;;;4901035;29;20450;-83
2022/06/02 04:32:40;;;;;;;67.90;28.15;;;7.00;99.90;;;;;;4915987;29;20119;-80
2022/06/02 04:35:42;;;;;;;47.90;25.15;;;7.20;99.90;;;;;;4916348;29;20193;-81
2022/06/02 04:38:15;;;;;;;51.45;25.42;;;7.40;99.90;;;;;;4910572;29;20130;-81
2022/06/02 04:41:09;;;;;;;60.17;27.42;;;7.50;99.90;;;;;;4919408;29;20462;-80
2022/06/02 04:43:48;;;;;;;54.85;25.67;;;7.50;99.90;;;;;;4944510;28;20062;-82
2022/06/02 04:46:25;;;;;;;52.72;26.63;;;7.60;99.90;;;;;;4980906;28;20225;-80
2022/06/02 04:49:04;;;;;;;35.00;22.55;;;7.70;99.90;;;;;;4977028;28;20062;-80
2022/06/02 04:52:05;;;;;;;44.75;25.90;;;7.80;99.90;;;;;;4982684;28;20058;-80
2022/06/02 04:55:10;;;;;;;40.95;23.30;;;7.90;99.90;;;;;;4970520;28;20062;-81
2022/06/02 04:57:49;;;;;;;36.13;23.30;;;7.90;99.90;;;;;;4995688;28;20176;-81
2022/06/02 05:00:48;;;;;;;37.33;21.90;;;8.00;99.90;;;;;;5019527;28;20160;-80
2022/06/02 05:03:20;;;;;;;31.38;22.23;;;8.10;99.90;;;;;;4996052;28;20502;-81
2022/06/02 05:05:59;;;;;;;32.63;20.77;;;8.20;99.90;;;;;;4996015;28;20180;-81
2022/06/02 05:08:51;;;;;;;31.42;20.08;;;8.30;99.90;;;;;;4996080;28;20054;-80
2022/06/02 05:11:25;;;;;;;25.48;19.73;;;8.40;99.90;;;;;;4996214;28;20064;-80
2022/06/02 05:13:53;;;;;;;20.60;15.68;;;8.40;99.90;;;;;;5012017;28;20085;-80
2022/06/02 05:16:35;;;;;;;35.00;21.52;;;8.50;99.90;;;;;;4995945;28;20062;-80
2022/06/02 05:19:29;;;;;;;32.47;20.73;;;8.50;99.90;;;;;;5012139;28;20062;-80
2022/06/02 05:22:29;;;;;;;31.90;19.58;;;8.60;99.90;;;;;;5012113;28;20566;-80
2022/06/02 05:25:13;;;;;;;32.33;20.42;;;8.70;99.90;;;;;;4995631;28;20068;-86
2022/06/02 05:27:53;;;;;;;29.83;20.65;;;8.80;99.90;;;;;;4995728;28;20053;-80
2022/06/02 05:30:35;;;;;;;31.57;20.93;;;9.00;99.90;;;;;;4997812;28;20407;-87
2022/06/02 05:33:12;;;;;;;29.75;20.45;;;9.10;99.90;;;;;;5053522;28;20128;-80
2022/06/02 05:36:01;;;;;;;33.70;21.02;;;9.20;99.90;;;;;;5053788;28;20536;-80
2022/06/02 05:38:54;;;;;;;25.95;19.30;;;9.30;99.90;;;;;;5052786;28;20135;-80
2022/06/02 05:41:59;;;;;;;25.02;18.13;;;9.50;99.90;;;;;;5053361;28;20051;-83
2022/06/02 05:44:39;;;;;;;26.52;19.60;;;9.80;99.90;;;;;;5014896;28;20099;-80
2022/06/02 05:47:31;;;;;;;26.15;18.63;;;9.70;99.90;;;;;;5014948;28;20233;-80
2022/06/02 05:50:31;;;;;;;23.23;17.35;;;9.90;99.90;;;;;;5031138;28;20103;-80
2022/06/02 05:53:35;;;;;;;24.20;17.73;;;10.00;99.90;;;;;;5031258;28;20045;-80
2022/06/02 05:56:03;;;;;;;22.40;16.67;;;10.10;99.90;;;;;;4998159;28;20067;-80
2022/06/02 05:58:59;;;;;;;20.75;14.63;;;10.20;99.90;;;;;;5031127;28;20045;-80
2022/06/02 06:02:02;;;;;;;18.52;13.95;;;10.40;99.90;;;;;;5014505;28;20495;-80
2022/06/02 06:04:34;;;;;;;16.95;14.00;;;10.50;99.90;;;;;;5014648;28;20096;-80
2022/06/02 06:07:14;;;;;;;16.10;13.80;;;10.80;99.90;;;;;;5030907;28;20128;-80
2022/06/02 06:09:46;;;;;;;16.52;13.15;;;10.70;99.90;;;;;;5014700;28;20061;-80
2022/06/02 06:12:33;;;;;;;16.88;13.48;;;10.80;99.90;;;;;;5030896;28;20050;-79
2022/06/02 06:15:07;;;;;;;14.68;12.50;;;10.90;99.90;;;;;;5014489;28;20077;-80
2022/06/02 06:17:34;;;;;;;15.75;10.55;;;11.00;99.90;;;;;;5014843;28;20419;-80
2022/06/02 06:20:26;;;;;;;15.32;10.50;;;11.10;99.90;;;;;;5030900;28;20446;-80
2022/06/02 06:23:17;;;;;;;13.05;9.90;;;11.20;99.90;;;;;;5011104;28;20053;-81
2022/06/02 06:26:04;;;;;;;11.15;9.35;;;11.40;99.90;;;;;;5009949;28;20510;-80
2022/06/02 06:28:36;;;;;;;11.10;9.57;;;11.50;99.90;;;;;;5010937;28;20578;-80
2022/06/02 06:31:13;;;;;;;12.23;9.68;;;11.50;99.90;;;;;;5011326;28;20530;-81
2022/06/02 06:33:48;;;;;;;12.02;9.27;;;11.70;99.90;;;;;;4994890;28;20057;-83
2022/06/02 06:36:51;;;;;;;11.00;8.63;;;11.80;99.90;;;;;;5010860;28;20050;-81
2022/06/02 06:39:25;;;;;;;12.82;8.63;;;11.90;99.90;;;;;;5011036;28;20054;-80
2022/06/02 06:42:14;;;;;;;9.07;6.90;;;12.40;99.90;;;;;;5011165;28;20050;-80
2022/06/02 06:44:47;;;;;;;7.90;5.35;;;13.30;99.90;;;;;;4971807;28;20263;-83
2022/06/02 06:47:24;;;;;;;8.20;5.05;;;14.40;99.90;;;;;;4939213;28;20055;-80
2022/06/02 06:49:55;;;;;;;5.80;5.07;;;15.30;99.90;;;;;;4956088;28;20162;-81
2022/06/02 06:52:51;;;;;;;7.60;4.95;;;16.00;99.90;;;;;;4955643;28;20538;-86
2022/06/02 06:55:56;;;;;;;10.55;5.75;;;16.50;99.90;;;;;;4971814;28;20065;-81
2022/06/02 06:58:28;;;;;;;6.97;5.45;;;17.10;99.90;;;;;;4955786;28;20074;-82
2022/06/02 07:01:04;;;;;;;7.22;3.83;;;17.00;99.90;;;;;;5007327;28;20096;-81
2022/06/02 07:03:49;;;;;;;6.25;3.47;;;16.60;99.90;;;;;;4998074;28;20053;-81
2022/06/02 07:06:23;;;;;;;6.10;3.33;;;15.90;99.90;;;;;;5030613;28;20410;-81
2022/06/02 07:09:00;;;;;;;3.15;2.80;;;16.00;99.90;;;;;;5014433;28;20136;-83
2022/06/02 07:14:55;;;;;;;3.13;2.50;;;17.30;99.90;;;;;;5015351;28;20053;-79
2022/06/02 07:17:38;;;;;;;3.90;2.03;;;17.60;99.90;;;;;;5031077;28;20049;-87
2022/06/02 07:20:16;;;;;;;2.88;2.30;;;17.40;99.90;;;;;;5030165;28;20434;-82
2022/06/02 07:23:16;;;;;;;5.72;2.22;;;17.40;99.90;;;;;;5046731;28;20061;-81
2022/06/02 07:26:12;;;;;;;4.47;2.20;;;17.60;99.90;;;;;;4997335;28;20054;-82
2022/06/02 07:29:10;;;;;;;2.58;2.30;;;18.70;99.90;;;;;;5010111;28;20482;-82
2022/06/02 07:32:14;;;;;;;4.80;2.30;;;18.30;99.90;;;;;;4951924;29;20603;-81
2022/06/02 07:34:45;;;;;;;4.50;2.38;;;17.80;99.90;;;;;;4936008;29;20073;-82
2022/06/02 07:37:27;;;;;;;5.80;1.80;;;18.00;99.90;;;;;;4938234;29;20090;-81
2022/06/02 07:40:00;;;;;;;4.40;1.65;;;18.50;99.90;;;;;;4940000;29;20094;-81
2022/06/02 07:42:47;;;;;;;2.88;1.63;;;18.90;99.90;;;;;;4939165;29;20090;-81
2022/06/02 07:45:27;;;;;;;4.55;1.83;;;18.30;99.90;;;;;;4940934;29;20051;-83
2022/06/02 07:48:12;;;;;;;3.88;1.67;;;17.70;99.90;;;;;;4956700;29;20047;-82
2022/06/02 07:50:49;;;;;;;2.50;1.65;;;18.40;99.90;;;;;;4924480;29;20062;-81
2022/06/02 07:53:29;;;;;;;4.10;1.92;;;18.20;99.90;;;;;;4956208;29;20095;-82
2022/06/02 07:55:54;;;;;;;5.10;1.80;;;17.90;99.90;;;;;;4940227;29;20137;-81
2022/06/02 07:58:32;;;;;;;2.67;1.85;;;17.70;99.90;;;;;;4940167;29;20130;-81
2022/06/02 08:00:57;;;;;;;2.28;1.48;;;17.30;99.90;;;;;;4940645;28;20051;-82
2022/06/02 08:03:33;;;;;;;3.08;1.88;;;17.80;99.90;;;;;;4995249;28;20404;-80
2022/06/02 08:06:24;;;;;;;3.03;1.38;;;19.00;99.90;;;;;;4994814;28;20096;-82
2022/06/02 08:09:08;;;;;;;1.75;1.17;;;19.70;99.90;;;;;;5025664;28;20041;-82
2022/06/02 08:12:00;;;;;;;4.07;1.70;;;20.60;98.10;;;;;;5055670;28;20078;-81
2022/06/02 08:15:00;;;;;;;2.72;1.45;;;21.20;77.30;;;;;;5055871;28;20040;-81
2022/06/02 08:17:48;;;;;;;4.65;1.60;;;20.10;83.60;;;;;;5054382;28;20085;-81
2022/06/02 08:20:32;;;;;;;1.75;1.35;;;19.20;91.60;;;;;;5054653;28;20127;-81
2022/06/02 08:23:24;;;;;;;2.95;1.50;;;19.80;94.10;;;;;;5055064;28;20060;-81
2022/06/02 08:25:58;;;;;;;3.90;1.70;;;20.20;80.20;;;;;;5054198;28;20051;-87
2022/06/02 08:28:55;;;;;;;3.35;1.40;;;20.60;82.40;;;;;;5053938;28;20154;-82
2022/06/02 08:31:38;;;;;;;3.13;1.58;;;21.40;71.20;;;;;;5054000;28;20053;-83
2022/06/02 08:34:21;;;;;;;3.80;1.65;;;21.70;71.90;;;;;;5054073;28;20060;-81
2022/06/02 08:37:13;;;;;;;4.05;1.30;;;22.20;63.10;;;;;;5053890;28;20041;-83
2022/06/02 08:40:01;;;;;;;2.25;1.42;;;22.60;60.70;;;;;;5055136;28;20098;-82
2022/06/02 08:42:36;;;;;;;2.35;1.60;;;23.30;62.10;;;;;;5054939;28;20053;-82
2022/06/02 08:45:11;;;;;;;3.40;1.60;;;24.10;56.10;;;;;;5053882;28;20086;-83
2022/06/02 08:47:46;;;;;;;3.78;1.60;;;24.30;56.90;;;;;;5052553;28;20084;-82
2022/06/02 08:50:11;;;;;;;4.38;1.45;;;24.00;57.70;;;;;;5054608;28;20136;-81
2022/06/02 08:53:15;;;;;;;3.08;1.40;;;24.40;57.20;;;;;;5054331;28;20124;-82
2022/06/02 08:56:12;;;;;;;4.10;1.38;;;24.90;54.60;;;;;;5015832;28;20113;-81
2022/06/02 08:59:13;;;;;;;3.28;1.60;;;24.60;53.20;;;;;;5015842;28;20065;-81
2022/06/02 09:02:03;;;;;;;2.35;1.50;;;23.40;56.70;;;;;;5016224;28;20136;-81
2022/06/02 09:04:29;;;;;;;3.10;1.83;;;22.70;59.80;;;;;;5032293;28;20056;-81
2022/06/02 09:07:16;;;;;;;2.22;1.15;;;23.20;59.90;;;;;;5032126;28;20650;-83
2022/06/02 09:09:59;;;;;;;3.90;1.27;;;24.00;56.70;;;;;;5015890;28;20225;-81
2022/06/02 09:12:54;;;;;;;4.78;1.40;;;23.20;55.60;;;;;;5015944;28;20100;-89
2022/06/02 09:15:39;;;;;;;3.25;1.30;;;22.60;58.60;;;;;;5031868;28;20208;-84
2022/06/02 09:18:10;;;;;;;3.22;1.00;;;23.40;57.30;;;;;;5031939;28;20049;-82
2022/06/02 09:21:04;;;;;;;1.90;1.10;;;24.30;55.90;;;;;;5015549;28;20057;-82
2022/06/02 09:23:46;;;;;;;3.03;1.40;;;25.50;51.90;;;;;;5015348;28;20056;-81
2022/06/02 09:26:14;;;;;;;2.35;1.20;;;24.90;48.90;;;;;;5015439;28;20049;-81
2022/06/02 09:28:59;;;;;;;2.13;1.20;;;24.10;51.70;;;;;;5015214;28;20045;-81
2022/06/02 09:31:48;;;;;;;1.75;1.15;;;23.60;53.30;;;;;;5016658;28;20184;-83
2022/06/02 09:34:38;;;;;;;2.47;1.10;;;22.80;55.10;;;;;;5053798;28;20056;-81
2022/06/02 09:37:45;;;;;;;1.60;1.23;;;21.90;58.40;;;;;;5052896;28;20059;-80
2022/06/02 09:40:38;;;;;;;4.05;1.30;;;21.30;58.20;;;;;;5053702;28;20084;-81
2022/06/02 09:43:35;;;;;;;2.15;1.30;;;21.00;61.20;;;;;;5052721;28;20528;-81
2022/06/02 09:46:28;;;;;;;2.33;1.63;;;20.60;62.90;;;;;;5054664;28;20044;-82
2022/06/02 09:49:21;;;;;;;6.13;1.40;;;20.80;64.10;;;;;;5053811;28;20088;-82
2022/06/02 09:52:04;;;;;;;2.85;1.40;;;22.10;59.80;;;;;;5052426;28;20508;-81
2022/06/02 09:55:24;;;;;;;3.78;1.50;;;23.80;55.40;;;;;;5053626;28;20045;-81
2022/06/02 09:58:05;;;;;;;4.43;1.42;;;25.40;53.60;;;;;;5014765;28;20037;-82
2022/06/02 10:00:40;;;;;;;2.40;1.45;;;25.70;48.90;;;;;;5031195;28;20495;-81
2022/06/02 10:03:39;;;;;;;2.65;1.48;;;24.20;52.00;;;;;;5031248;28;20052;-81
2022/06/02 10:06:23;;;;;;;3.25;1.33;;;22.70;55.30;;;;;;5031214;28;20108;-81
2022/06/02 10:09:30;;;;;;;3.47;1.60;;;21.60;59.10;;;;;;5014698;28;20064;-81
2022/06/02 10:15:13;;;;;;;2.83;1.33;;;22.00;59.80;;;;;;4952999;29;20551;-81
2022/06/02 10:18:05;;;;;;;3.17;1.52;;;23.40;54.00;;;;;;4952874;29;20088;-82
2022/06/02 10:21:08;;;;;;;2.33;1.33;;;22.80;54.40;;;;;;4952672;29;20062;-81
2022/06/02 10:23:51;;;;;;;3.03;1.20;;;22.00;59.10;;;;;;4877088;29;20100;-81
2022/06/02 10:26:47;;;;;;;1.60;1.20;;;22.30;59.30;;;;;;4861980;29;20258;-82
2022/06/02 10:29:50;;;;;;;2.85;1.27;;;22.80;56.00;;;;;;4861450;29;20124;-81
2022/06/02 10:32:53;;;;;;;3.05;1.35;;;24.30;52.00;;;;;;4887272;29;20051;-82
2022/06/02 10:35:44;;;;;;;1.55;0.90;;;25.90;51.80;;;;;;4914828;29;20059;-82
2022/06/02 10:38:24;;;;;;;1.27;1.02;;;27.30;46.40;;;;;;4914637;29;20087;-82
2022/06/02 10:41:08;;;;;;;4.18;1.30;;;26.60;46.30;;;;;;4898695;29;20060;-82
2022/06/02 10:44:01;;;;;;;1.50;1.10;;;25.60;46.50;;;;;;4914583;29;20103;-82
2022/06/02 10:46:43;;;;;;;3.55;1.30;;;23.90;50.70;;;;;;4914380;29;20099;-81
2022/06/02 10:49:23;;;;;;;2.65;1.40;;;22.90;54.40;;;;;;4939340;28;20179;-82
2022/06/02 10:52:22;;;;;;;2.80;1.27;;;22.60;55.60;;;;;;4971947;28;20055;-81
2022/06/02 10:55:24;;;;;;;1.77;1.23;;;22.60;57.30;;;;;;4955735;28;20057;-82
2022/06/02 10:58:27;;;;;;;2.03;1.40;;;22.60;56.00;;;;;;4972073;28;20051;-82
2022/06/02 11:01:12;;;;;;;3.42;1.42;;;22.70;58.10;;;;;;5045675;28;20052;-82
2022/06/02 11:03:59;;;;;;;3.08;1.30;;;24.30;54.70;;;;;;5052613;28;20048;-82
2022/06/02 11:07:04;;;;;;;2.92;1.10;;;25.60;49.00;;;;;;5052962;28;20045;-81
2022/06/02 11:10:00;;;;;;;3.70;1.27;;;25.20;48.00;;;;;;5052144;28;20084;-82
2022/06/02 11:12:45;;;;;;;2.15;1.13;;;24.10;51.50;;;;;;5055480;28;20045;-86
2022/06/02 11:15:41;;;;;;;1.60;1.20;;;25.00;51.30;;;;;;5055599;28;20045;-82
2022/06/02 11:18:40;;;;;;;2.50;1.30;;;26.30;47.60;;;;;;5055270;28;20068;-82
2022/06/02 11:21:45;;;;;;;1.55;1.00;;;27.40;45.10;;;;;;5039074;28;20044;-82
2022/06/02 11:24:33;;;;;;;3.58;1.25;;;27.50;44.10;;;;;;5017538;28;20538;-82
2022/06/02 11:27:17;;;;;;;1.80;1.25;;;25.90;46.40;;;;;;5034478;28;20104;-82
2022/06/02 11:30:04;;;;;;;1.65;1.30;;;24.40;47.80;;;;;;5034617;28;20053;-82
2022/06/02 11:32:49;;;;;;;2.55;1.40;;;23.20;50.40;;;;;;5018569;28;20085;-82
2022/06/02 11:35:30;;;;;;;2.95;1.10;;;22.90;52.80;;;;;;5018764;28;20057;-82
2022/06/02 11:38:23;;;;;;;3.90;1.00;;;24.00;51.10;;;;;;5020482;28;20052;-82
2022/06/02 11:41:24;;;;;;;2.80;1.00;;;24.00;49.20;;;;;;5021054;28;20140;-81
2022/06/02 11:44:02;;;;;;;1.67;0.98;;;23.10;51.00;;;;;;5038506;28;20237;-82
2022/06/02 11:47:01;;;;;;;2.05;0.75;;;22.50;53.10;;;;;;5038438;28;20128;-82
2022/06/02 11:50:04;;;;;;;3.30;0.90;;;23.50;51.50;;;;;;5003694;28;20407;-82
2022/06/02 11:52:57;;;;;;;2.13;0.80;;;25.20;49.10;;;;;;5018354;28;20069;-82
2022/06/02 11:55:59;;;;;;;4.93;1.02;;;24.90;48.80;;;;;;5019554;28;20585;-82
2022/06/02 11:59:07;;;;;;;2.17;1.02;;;23.90;50.30;;;;;;5038628;28;20048;-82
2022/06/02 12:01:59;;;;;;;1.63;0.90;;;23.80;52.50;;;;;;4962017;28;20058;-84
2022/06/02 12:04:56;;;;;;;1.48;1.00;;;25.00;50.70;;;;;;5014853;28;20042;-83
2022/06/02 12:07:51;;;;;;;2.95;1.02;;;26.30;47.70;;;;;;4967219;28;20058;-82
2022/06/02 12:11:08;;;;;;;1.98;0.90;;;27.20;44.70;;;;;;5014146;28;20082;-83
2022/06/02 12:13:40;;;;;;;2.83;0.98;;;28.40;41.40;;;;;;4958566;28;20704;-82
2022/06/02 12:16:33;;;;;;;1.13;0.80;;;28.60;40.80;;;;;;4974493;28;20063;-82
2022/06/02 12:19:52;;;;;;;1.35;0.80;;;28.30;41.00;;;;;;4974503;28;20059;-83
2022/06/02 12:22:21;;;;;;;1.67;0.75;;;26.90;42.60;;;;;;4878466;29;20052;-82
2022/06/02 12:25:01;;;;;;;1.30;0.90;;;25.30;46.20;;;;;;4878684;29;20526;-82
2022/06/02 12:27:29;;;;;;;1.65;0.65;;;24.30;47.30;;;;;;4879184;29;20063;-82
2022/06/02 12:30:15;;;;;;;2.42;1.00;;;23.50;49.80;;;;;;4878848;29;20065;-81
2022/06/02 12:32:58;;;;;;;1.05;0.90;;;23.00;52.00;;;;;;4864131;29;20482;-82
2022/06/02 12:35:54;;;;;;;2.13;0.90;;;22.50;53.20;;;;;;4863891;29;20147;-82
2022/06/02 12:38:45;;;;;;;3.15;0.90;;;22.10;53.20;;;;;;4874506;29;20152;-81
2022/06/02 12:41:11;;;;;;;1.85;1.00;;;21.70;55.80;;;;;;4900979;29;20060;-81
2022/06/02 12:44:01;;;;;;;1.02;0.88;;;21.60;56.50;;;;;;4911949;29;20142;-82
2022/06/02 12:46:44;;;;;;;1.55;0.93;;;21.90;56.10;;;;;;4938842;29;20069;-82
2022/06/02 12:49:16;;;;;;;2.30;0.85;;;23.20;54.30;;;;;;4954523;29;20047;-82
2022/06/02 12:52:00;;;;;;;1.38;0.82;;;25.00;50.90;;;;;;4954576;28;20066;-83
2022/06/02 12:54:44;;;;;;;1.70;0.70;;;26.50;46.60;;;;;;5053593;28;20102;-85
2022/06/02 12:57:34;;;;;;;1.20;0.50;;;27.50;45.50;;;;;;5054549;28;20045;-82
2022/06/02 13:00:42;;;;;;;1.55;0.50;;;28.70;41.90;;;;;;5054555;28;20044;-83
2022/06/02 13:03:45;;;;;;;1.15;0.57;;;29.40;42.30;;;;;;5032219;28;20045;-86
2022/06/02 13:06:21;;;;;;;2.40;0.70;;;30.30;40.20;;;;;;5032230;28;20075;-83
2022/06/02 13:08:50;;;;;;;1.10;0.60;;;31.00;40.10;;;;;;5015592;28;20049;-82
2022/06/02 13:11:24;;;;;;;2.55;1.00;;;30.70;38.80;;;;;;5032149;28;20045;-82
2022/06/02 13:14:02;;;;;;;1.92;0.80;;;29.10;40.20;;;;;;4999586;28;20169;-83
2022/06/02 13:16:36;;;;;;;1.50;0.80;;;27.70;42.70;;;;;;5015426;28;20069;-82
2022/06/02 13:19:10;;;;;;;2.53;0.82;;;28.10;42.80;;;;;;5032022;28;20057;-82
2022/06/02 13:22:13;;;;;;;2.10;1.00;;;28.90;42.20;;;;;;5015301;28;20141;-84
2022/06/02 13:25:26;;;;;;;2.00;0.85;;;29.60;38.10;;;;;;5031750;28;20049;-82
2022/06/02 13:28:10;;;;;;;1.95;0.85;;;29.20;38.60;;;;;;4953585;29;20051;-83
2022/06/02 13:31:06;;;;;;;2.67;0.70;;;29.10;41.10;;;;;;4937207;29;20079;-82
2022/06/02 13:34:09;;;;;;;1.27;0.60;;;29.40;40.40;;;;;;4940083;28;20505;-82
2022/06/02 13:37:07;;;;;;;1.20;0.70;;;29.60;38.30;;;;;;4921934;29;20051;-83
2022/06/02 13:39:48;;;;;;;2.90;0.82;;;29.80;39.30;;;;;;4867237;29;20104;-82
2022/06/02 13:42:22;;;;;;;0.77;0.50;;;30.00;38.20;;;;;;4896333;29;20148;-83
2022/06/02 13:45:16;;;;;;;1.25;0.60;;;30.10;38.00;;;;;;4896437;29;20063;-83
2022/06/02 13:48:06;;;;;;;0.82;0.60;;;30.40;38.30;;;;;;4895997;29;20503;-83
2022/06/02 13:50:59;;;;;;;1.40;0.60;;;30.50;38.20;;;;;;4896439;29;20061;-82
2022/06/02 14:00:03;;;;;;;1.98;0.68;;;31.50;37.80;;;;;;4896466;29;20096;-83
2022/06/02 14:03:11;;;;;;;0.73;0.57;;;31.40;38.40;;;;;;4896855;29;20052;-83
2022/06/02 14:06:05;;;;;;;1.27;0.63;;;31.30;38.30;;;;;;4933907;29;20067;-83
2022/06/02 14:08:52;;;;;;;2.13;0.80;;;30.90;39.40;;;;;;4919050;29;20485;-82
2022/06/02 14:11:26;;;;;;;1.00;0.68;;;30.20;39.30;;;;;;4934427;29;20055;-83
2022/06/02 14:14:04;;;;;;;0.85;0.50;;;30.10;39.50;;;;;;4918454;29;20058;-84
2022/06/02 14:16:50;;;;;;;1.15;0.70;;;30.60;38.40;;;;;;4966658;28;20054;-83
2022/06/02 14:19:34;;;;;;;1.05;0.65;;;30.90;38.30;;;;;;5011476;28;20057;-83
2022/06/02 14:22:24;;;;;;;0.90;0.60;;;30.40;38.00;;;;;;4994901;28;20085;-83
2022/06/02 14:25:13;;;;;;;1.52;0.47;;;29.00;39.40;;;;;;5011333;28;20050;-86
2022/06/02 14:28:12;;;;;;;1.23;0.60;;;27.70;41.10;;;;;;4994406;28;20100;-83
2022/06/02 14:30:45;;;;;;;1.60;0.63;;;27.40;41.40;;;;;;4978151;28;20060;-83
2022/06/02 14:33:16;;;;;;;4.53;0.93;;;28.40;39.20;;;;;;5010943;28;20052;-83
2022/06/02 14:36:01;;;;;;;2.03;0.52;;;29.40;38.70;;;;;;4978522;28;20460;-84
2022/06/02 14:38:50;;;;;;;1.45;0.82;;;30.30;38.30;;;;;;4994707;28;20147;-82
2022/06/02 14:41:28;;;;;;;1.65;0.80;;;30.50;36.80;;;;;;5035569;28;20477;-83
2022/06/02 14:44:15;;;;;;;1.00;0.68;;;30.00;37.30;;;;;;5051863;28;20477;-82